Brighton, Oregon
Current Conditions -  °F | °C
As of 4:35 PM on Thursday 27 Nov 2014 (Local Time) from KTMK Reporting Station
Moderate Rain Moderate Rain  
Wind Chill: 55°   Ceiling: 1300
Heat Index: 55°   Visibility: 5mi
Dew Point: 55°   Wind: 8mph
Humidity: 100%   Direction: 170°S
Pressure: 29.89"   Gusts: NA
Location:  45.6132°N, 123.654°W
Report Text: KTMK 280035Z AUTO 17007KT 5SM RA BKN013 OVC019 13/13 A2989 RMK AO2 P0003
Loading
Personal Weather Stations






























Interactive Weather Map New forecast layout! Learn more

10-Day Weather Forecast

Advertisements
Track Severe Weather on mobile